sensor_id;sensor_type;location;lat;lon;timestamp;P1;durP1;ratioP1;P2;durP2;ratioP2
50769;SDS011;36740;48.698;11.472;2023-08-31T00:00:39;7.97;;;5.55;;
50769;SDS011;36740;48.698;11.472;2023-08-31T00:03:05;8.23;;;6.45;;
50769;SDS011;36740;48.698;11.472;2023-08-31T00:05:31;8.90;;;4.68;;
50769;SDS011;36740;48.698;11.472;2023-08-31T00:07:56;8.02;;;4.93;;
50769;SDS011;36740;48.698;11.472;2023-08-31T00:10:21;7.82;;;5.43;;
50769;SDS011;36740;48.698;11.472;2023-08-31T00:12:47;9.43;;;6.18;;
50769;SDS011;36740;48.698;11.472;2023-08-31T00:15:13;6.47;;;4.15;;
50769;SDS011;36740;48.698;11.472;2023-08-31T00:17:38;17.63;;;6.18;;
50769;SDS011;36740;48.698;11.472;2023-08-31T00:20:05;8.02;;;4.45;;
50769;SDS011;36740;48.698;11.472;2023-08-31T00:22:36;6.18;;;4.30;;
50769;SDS011;36740;48.698;11.472;2023-08-31T00:25:03;9.40;;;6.32;;
50769;SDS011;36740;48.698;11.472;2023-08-31T00:27:28;12.00;;;4.97;;
50769;SDS011;36740;48.698;11.472;2023-08-31T00:29:54;10.20;;;5.15;;
50769;SDS011;36740;48.698;11.472;2023-08-31T00:32:20;6.65;;;4.53;;
50769;SDS011;36740;48.698;11.472;2023-08-31T00:34:48;7.00;;;3.92;;
50769;SDS011;36740;48.698;11.472;2023-08-31T00:37:13;8.93;;;5.03;;
50769;SDS011;36740;48.698;11.472;2023-08-31T00:39:39;7.85;;;4.80;;
50769;SDS011;36740;48.698;11.472;2023-08-31T00:42:04;7.70;;;5.07;;
50769;SDS011;36740;48.698;11.472;2023-08-31T00:44:29;9.23;;;5.40;;
50769;SDS011;36740;48.698;11.472;2023-08-31T00:46:55;16.35;;;4.53;;
50769;SDS011;36740;48.698;11.472;2023-08-31T00:49:20;7.13;;;4.53;;
50769;SDS011;36740;48.698;11.472;2023-08-31T00:51:46;10.45;;;5.60;;
50769;SDS011;36740;48.698;11.472;2023-08-31T00:54:16;7.53;;;4.80;;
50769;SDS011;36740;48.698;11.472;2023-08-31T00:56:44;7.78;;;4.32;;
50769;SDS011;36740;48.698;11.472;2023-08-31T00:59:10;24.52;;;4.88;;
50769;SDS011;36740;48.698;11.472;2023-08-31T01:01:43;6.88;;;4.40;;
50769;SDS011;36740;48.698;11.472;2023-08-31T01:09:16;6.95;;;4.00;;
50769;SDS011;36740;48.698;11.472;2023-08-31T01:14:16;9.98;;;5.80;;
50769;SDS011;36740;48.698;11.472;2023-08-31T01:16:42;8.30;;;5.00;;
50769;SDS011;36740;48.698;11.472;2023-08-31T01:19:16;9.15;;;5.63;;
50769;SDS011;36740;48.698;11.472;2023-08-31T01:21:42;9.07;;;5.13;;
50769;SDS011;36740;48.698;11.472;2023-08-31T01:24:10;8.48;;;5.25;;
50769;SDS011;36740;48.698;11.472;2023-08-31T01:26:36;8.55;;;4.28;;
50769;SDS011;36740;48.698;11.472;2023-08-31T01:29:01;7.10;;;4.68;;
50769;SDS011;36740;48.698;11.472;2023-08-31T01:31:27;6.25;;;4.25;;
50769;SDS011;36740;48.698;11.472;2023-08-31T01:33:52;5.68;;;4.22;;
50769;SDS011;36740;48.698;11.472;2023-08-31T01:36:19;8.25;;;5.18;;
50769;SDS011;36740;48.698;11.472;2023-08-31T01:38:48;5.63;;;4.10;;
50769;SDS011;36740;48.698;11.472;2023-08-31T01:41:16;7.15;;;3.40;;
50769;SDS011;36740;48.698;11.472;2023-08-31T01:43:43;4.80;;;3.42;;
50769;SDS011;36740;48.698;11.472;2023-08-31T01:46:08;5.68;;;3.63;;
50769;SDS011;36740;48.698;11.472;2023-08-31T01:48:40;6.65;;;3.10;;
50769;SDS011;36740;48.698;11.472;2023-08-31T01:51:06;3.67;;;2.80;;
50769;SDS011;36740;48.698;11.472;2023-08-31T01:53:32;6.57;;;4.05;;
50769;SDS011;36740;48.698;11.472;2023-08-31T01:55:57;6.45;;;3.15;;
50769;SDS011;36740;48.698;11.472;2023-08-31T01:58:22;3.08;;;2.42;;
50769;SDS011;36740;48.698;11.472;2023-08-31T02:00:48;8.07;;;2.95;;
50769;SDS011;36740;48.698;11.472;2023-08-31T02:03:13;3.22;;;2.20;;
50769;SDS011;36740;48.698;11.472;2023-08-31T02:05:38;6.38;;;2.30;;
50769;SDS011;36740;48.698;11.472;2023-08-31T02:08:04;10.10;;;3.13;;
50769;SDS011;36740;48.698;11.472;2023-08-31T02:10:29;2.85;;;2.25;;
50769;SDS011;36740;48.698;11.472;2023-08-31T02:12:55;3.53;;;2.38;;
50769;SDS011;36740;48.698;11.472;2023-08-31T02:15:20;5.10;;;2.28;;
50769;SDS011;36740;48.698;11.472;2023-08-31T02:17:45;2.83;;;1.98;;
50769;SDS011;36740;48.698;11.472;2023-08-31T02:20:11;2.50;;;2.05;;
50769;SDS011;36740;48.698;11.472;2023-08-31T02:22:36;3.28;;;1.67;;
50769;SDS011;36740;48.698;11.472;2023-08-31T02:25:01;5.40;;;2.38;;
50769;SDS011;36740;48.698;11.472;2023-08-31T02:27:27;2.72;;;1.65;;
50769;SDS011;36740;48.698;11.472;2023-08-31T02:29:52;3.17;;;1.95;;
50769;SDS011;36740;48.698;11.472;2023-08-31T02:32:17;4.47;;;2.00;;
50769;SDS011;36740;48.698;11.472;2023-08-31T02:34:42;5.70;;;2.42;;
50769;SDS011;36740;48.698;11.472;2023-08-31T02:37:08;4.00;;;2.15;;
50769;SDS011;36740;48.698;11.472;2023-08-31T02:39:33;2.55;;;1.65;;
50769;SDS011;36740;48.698;11.472;2023-08-31T02:41:58;4.70;;;1.77;;
50769;SDS011;36740;48.698;11.472;2023-08-31T02:44:25;8.95;;;1.98;;
50769;SDS011;36740;48.698;11.472;2023-08-31T02:46:50;4.72;;;2.60;;
50769;SDS011;36740;48.698;11.472;2023-08-31T02:49:15;2.45;;;1.85;;
50769;SDS011;36740;48.698;11.472;2023-08-31T02:51:41;4.30;;;2.30;;
50769;SDS011;36740;48.698;11.472;2023-08-31T02:54:06;3.55;;;2.38;;
50769;SDS011;36740;48.698;11.472;2023-08-31T02:56:32;3.15;;;2.03;;
50769;SDS011;36740;48.698;11.472;2023-08-31T02:58:57;4.05;;;1.92;;
50769;SDS011;36740;48.698;11.472;2023-08-31T03:01:22;3.22;;;1.85;;
50769;SDS011;36740;48.698;11.472;2023-08-31T03:03:49;3.08;;;2.22;;
50769;SDS011;36740;48.698;11.472;2023-08-31T03:06:14;3.38;;;2.25;;
50769;SDS011;36740;48.698;11.472;2023-08-31T03:08:40;2.58;;;2.22;;
50769;SDS011;36740;48.698;11.472;2023-08-31T03:11:05;4.85;;;2.70;;
50769;SDS011;36740;48.698;11.472;2023-08-31T03:13:31;3.60;;;2.33;;
50769;SDS011;36740;48.698;11.472;2023-08-31T03:15:57;3.78;;;2.67;;
50769;SDS011;36740;48.698;11.472;2023-08-31T03:18:22;3.67;;;1.98;;
50769;SDS011;36740;48.698;11.472;2023-08-31T03:20:48;5.97;;;2.38;;
50769;SDS011;36740;48.698;11.472;2023-08-31T03:23:13;4.72;;;2.55;;
50769;SDS011;36740;48.698;11.472;2023-08-31T03:25:39;8.50;;;2.83;;
50769;SDS011;36740;48.698;11.472;2023-08-31T03:28:04;26.70;;;3.08;;
50769;SDS011;36740;48.698;11.472;2023-08-31T03:30:29;4.38;;;3.10;;
50769;SDS011;36740;48.698;11.472;2023-08-31T03:32:54;3.55;;;2.55;;
50769;SDS011;36740;48.698;11.472;2023-08-31T03:35:20;5.88;;;3.58;;
50769;SDS011;36740;48.698;11.472;2023-08-31T03:37:47;5.40;;;3.40;;
50769;SDS011;36740;48.698;11.472;2023-08-31T03:40:13;4.80;;;3.20;;
50769;SDS011;36740;48.698;11.472;2023-08-31T03:42:38;4.60;;;2.90;;
50769;SDS011;36740;48.698;11.472;2023-08-31T03:45:04;6.50;;;3.72;;
50769;SDS011;36740;48.698;11.472;2023-08-31T03:47:29;6.00;;;3.70;;
50769;SDS011;36740;48.698;11.472;2023-08-31T03:49:55;5.80;;;3.47;;
50769;SDS011;36740;48.698;11.472;2023-08-31T03:52:20;5.97;;;3.42;;
50769;SDS011;36740;48.698;11.472;2023-08-31T03:54:45;6.57;;;4.15;;
50769;SDS011;36740;48.698;11.472;2023-08-31T03:57:11;5.13;;;3.42;;
50769;SDS011;36740;48.698;11.472;2023-08-31T03:59:36;4.93;;;3.45;;
50769;SDS011;36740;48.698;11.472;2023-08-31T04:02:01;5.13;;;3.00;;
50769;SDS011;36740;48.698;11.472;2023-08-31T04:04:27;7.57;;;4.10;;
50769;SDS011;36740;48.698;11.472;2023-08-31T04:06:52;4.90;;;2.88;;
50769;SDS011;36740;48.698;11.472;2023-08-31T04:09:17;7.15;;;2.88;;
50769;SDS011;36740;48.698;11.472;2023-08-31T04:11:44;4.82;;;3.03;;
50769;SDS011;36740;48.698;11.472;2023-08-31T04:14:09;6.53;;;3.50;;
50769;SDS011;36740;48.698;11.472;2023-08-31T04:16:34;4.68;;;3.35;;
50769;SDS011;36740;48.698;11.472;2023-08-31T04:18:59;2.13;;;1.85;;
50769;SDS011;36740;48.698;11.472;2023-08-31T04:21:25;5.63;;;3.30;;
50769;SDS011;36740;48.698;11.472;2023-08-31T04:23:50;11.88;;;3.97;;
50769;SDS011;36740;48.698;11.472;2023-08-31T04:26:15;5.05;;;3.53;;
50769;SDS011;36740;48.698;11.472;2023-08-31T04:28:42;4.70;;;2.65;;
50769;SDS011;36740;48.698;11.472;2023-08-31T04:31:08;6.78;;;2.97;;
50769;SDS011;36740;48.698;11.472;2023-08-31T04:33:34;4.88;;;2.22;;
50769;SDS011;36740;48.698;11.472;2023-08-31T04:35:59;6.85;;;3.15;;
50769;SDS011;36740;48.698;11.472;2023-08-31T04:38:24;5.30;;;2.78;;
50769;SDS011;36740;48.698;11.472;2023-08-31T04:40:50;2.65;;;2.22;;
50769;SDS011;36740;48.698;11.472;2023-08-31T04:43:15;4.53;;;3.17;;
50769;SDS011;36740;48.698;11.472;2023-08-31T04:45:40;4.45;;;2.70;;
50769;SDS011;36740;48.698;11.472;2023-08-31T04:48:05;5.57;;;3.03;;
50769;SDS011;36740;48.698;11.472;2023-08-31T04:50:31;4.25;;;3.20;;
50769;SDS011;36740;48.698;11.472;2023-08-31T04:52:56;4.72;;;2.95;;
50769;SDS011;36740;48.698;11.472;2023-08-31T04:55:21;5.50;;;2.95;;
50769;SDS011;36740;48.698;11.472;2023-08-31T04:57:47;7.70;;;4.35;;
50769;SDS011;36740;48.698;11.472;2023-08-31T05:00:12;4.18;;;2.65;;
50769;SDS011;36740;48.698;11.472;2023-08-31T05:02:38;6.10;;;3.25;;
50769;SDS011;36740;48.698;11.472;2023-08-31T05:05:04;4.53;;;3.60;;
50769;SDS011;36740;48.698;11.472;2023-08-31T05:07:29;4.00;;;3.05;;
50769;SDS011;36740;48.698;11.472;2023-08-31T05:09:54;9.20;;;2.65;;
50769;SDS011;36740;48.698;11.472;2023-08-31T05:12:19;6.10;;;2.35;;
50769;SDS011;36740;48.698;11.472;2023-08-31T05:14:45;3.72;;;3.00;;
50769;SDS011;36740;48.698;11.472;2023-08-31T05:17:10;7.93;;;3.00;;
50769;SDS011;36740;48.698;11.472;2023-08-31T05:19:35;4.35;;;2.95;;
50769;SDS011;36740;48.698;11.472;2023-08-31T05:22:01;6.57;;;2.72;;
50769;SDS011;36740;48.698;11.472;2023-08-31T05:24:27;7.18;;;3.58;;
50769;SDS011;36740;48.698;11.472;2023-08-31T05:26:52;4.80;;;3.13;;
50769;SDS011;36740;48.698;11.472;2023-08-31T05:29:17;6.13;;;2.88;;
50769;SDS011;36740;48.698;11.472;2023-08-31T05:31:42;3.83;;;2.55;;
50769;SDS011;36740;48.698;11.472;2023-08-31T05:34:15;5.60;;;3.08;;
50769;SDS011;36740;48.698;11.472;2023-08-31T05:36:40;3.70;;;2.75;;
50769;SDS011;36740;48.698;11.472;2023-08-31T05:39:06;4.50;;;2.38;;
50769;SDS011;36740;48.698;11.472;2023-08-31T05:41:31;2.90;;;2.20;;
50769;SDS011;36740;48.698;11.472;2023-08-31T05:43:56;4.22;;;2.35;;
50769;SDS011;36740;48.698;11.472;2023-08-31T05:46:21;4.00;;;1.92;;
50769;SDS011;36740;48.698;11.472;2023-08-31T05:48:47;3.45;;;2.42;;
50769;SDS011;36740;48.698;11.472;2023-08-31T05:51:13;4.45;;;3.03;;
50769;SDS011;36740;48.698;11.472;2023-08-31T05:53:38;2.83;;;2.00;;
50769;SDS011;36740;48.698;11.472;2023-08-31T05:56:03;3.63;;;2.75;;
50769;SDS011;36740;48.698;11.472;2023-08-31T05:58:32;6.22;;;2.38;;
50769;SDS011;36740;48.698;11.472;2023-08-31T06:00:58;6.28;;;2.47;;
50769;SDS011;36740;48.698;11.472;2023-08-31T06:03:24;5.22;;;3.08;;
50769;SDS011;36740;48.698;11.472;2023-08-31T06:05:49;3.92;;;3.00;;
50769;SDS011;36740;48.698;11.472;2023-08-31T06:08:15;5.38;;;3.45;;
50769;SDS011;36740;48.698;11.472;2023-08-31T06:10:40;5.18;;;3.40;;
50769;SDS011;36740;48.698;11.472;2023-08-31T06:13:05;5.53;;;3.58;;
50769;SDS011;36740;48.698;11.472;2023-08-31T06:15:31;10.80;;;3.55;;
50769;SDS011;36740;48.698;11.472;2023-08-31T06:17:56;5.30;;;3.08;;
50769;SDS011;36740;48.698;11.472;2023-08-31T06:20:21;9.55;;;4.25;;
50769;SDS011;36740;48.698;11.472;2023-08-31T06:22:47;9.75;;;4.15;;
50769;SDS011;36740;48.698;11.472;2023-08-31T06:25:12;5.15;;;3.13;;
50769;SDS011;36740;48.698;11.472;2023-08-31T06:27:41;5.13;;;2.75;;
50769;SDS011;36740;48.698;11.472;2023-08-31T06:30:07;7.50;;;2.88;;
50769;SDS011;36740;48.698;11.472;2023-08-31T06:32:33;4.47;;;3.00;;
50769;SDS011;36740;48.698;11.472;2023-08-31T06:34:59;4.70;;;2.85;;
50769;SDS011;36740;48.698;11.472;2023-08-31T06:37:24;4.97;;;2.60;;
50769;SDS011;36740;48.698;11.472;2023-08-31T06:39:49;4.65;;;3.10;;
50769;SDS011;36740;48.698;11.472;2023-08-31T06:42:19;5.82;;;2.97;;
50769;SDS011;36740;48.698;11.472;2023-08-31T06:47:10;5.53;;;3.30;;
50769;SDS011;36740;48.698;11.472;2023-08-31T06:49:35;5.43;;;3.30;;
50769;SDS011;36740;48.698;11.472;2023-08-31T06:52:00;6.55;;;3.50;;
50769;SDS011;36740;48.698;11.472;2023-08-31T06:54:27;6.95;;;3.92;;
50769;SDS011;36740;48.698;11.472;2023-08-31T06:56:53;5.95;;;2.55;;
50769;SDS011;36740;48.698;11.472;2023-08-31T06:59:18;8.85;;;3.30;;
50769;SDS011;36740;48.698;11.472;2023-08-31T07:01:43;6.85;;;2.40;;
50769;SDS011;36740;48.698;11.472;2023-08-31T07:04:08;9.50;;;4.05;;
50769;SDS011;36740;48.698;11.472;2023-08-31T07:06:35;3.72;;;1.75;;
50769;SDS011;36740;48.698;11.472;2023-08-31T07:09:00;4.07;;;2.38;;
50769;SDS011;36740;48.698;11.472;2023-08-31T07:11:25;6.03;;;3.28;;
50769;SDS011;36740;48.698;11.472;2023-08-31T07:13:52;11.90;;;2.55;;
50769;SDS011;36740;48.698;11.472;2023-08-31T07:16:18;4.45;;;2.80;;
50769;SDS011;36740;48.698;11.472;2023-08-31T07:18:43;6.30;;;3.75;;
50769;SDS011;36740;48.698;11.472;2023-08-31T07:21:08;5.63;;;3.55;;
50769;SDS011;36740;48.698;11.472;2023-08-31T07:23:35;3.38;;;2.28;;
50769;SDS011;36740;48.698;11.472;2023-08-31T07:26:00;7.57;;;3.03;;
50769;SDS011;36740;48.698;11.472;2023-08-31T07:28:26;8.70;;;4.13;;
50769;SDS011;36740;48.698;11.472;2023-08-31T07:31:04;3.17;;;2.70;;
50769;SDS011;36740;48.698;11.472;2023-08-31T07:33:33;3.08;;;2.78;;
50769;SDS011;36740;48.698;11.472;2023-08-31T07:35:59;7.20;;;3.70;;
50769;SDS011;36740;48.698;11.472;2023-08-31T07:38:25;7.35;;;3.65;;
50769;SDS011;36740;48.698;11.472;2023-08-31T07:40:51;4.40;;;2.33;;
50769;SDS011;36740;48.698;11.472;2023-08-31T07:43:16;5.60;;;3.35;;
50769;SDS011;36740;48.698;11.472;2023-08-31T07:45:42;4.22;;;2.95;;
50769;SDS011;36740;48.698;11.472;2023-08-31T07:48:07;8.18;;;3.20;;
50769;SDS011;36740;48.698;11.472;2023-08-31T07:50:33;4.32;;;2.72;;
50769;SDS011;36740;48.698;11.472;2023-08-31T07:52:59;4.38;;;2.70;;
50769;SDS011;36740;48.698;11.472;2023-08-31T07:55:24;4.32;;;2.63;;
50769;SDS011;36740;48.698;11.472;2023-08-31T07:57:49;3.10;;;2.33;;
50769;SDS011;36740;48.698;11.472;2023-08-31T08:00:15;4.07;;;2.83;;
50769;SDS011;36740;48.698;11.472;2023-08-31T08:02:40;3.85;;;2.45;;
50769;SDS011;36740;48.698;11.472;2023-08-31T08:05:06;3.15;;;2.50;;
50769;SDS011;36740;48.698;11.472;2023-08-31T08:07:31;4.20;;;1.60;;
50769;SDS011;36740;48.698;11.472;2023-08-31T08:09:56;3.58;;;2.95;;
50769;SDS011;36740;48.698;11.472;2023-08-31T08:12:22;6.80;;;2.95;;
50769;SDS011;36740;48.698;11.472;2023-08-31T08:14:47;6.05;;;3.45;;
50769;SDS011;36740;48.698;11.472;2023-08-31T08:17:12;2.97;;;1.85;;
50769;SDS011;36740;48.698;11.472;2023-08-31T08:19:38;7.47;;;2.65;;
50769;SDS011;36740;48.698;11.472;2023-08-31T08:22:03;3.65;;;2.55;;
50769;SDS011;36740;48.698;11.472;2023-08-31T08:27:04;3.95;;;2.25;;
50769;SDS011;36740;48.698;11.472;2023-08-31T08:29:29;4.13;;;2.67;;
50769;SDS011;36740;48.698;11.472;2023-08-31T08:31:54;5.90;;;3.83;;
50769;SDS011;36740;48.698;11.472;2023-08-31T08:34:19;4.93;;;3.05;;
50769;SDS011;36740;48.698;11.472;2023-08-31T08:36:45;4.53;;;2.92;;
50769;SDS011;36740;48.698;11.472;2023-08-31T08:39:10;2.95;;;1.85;;
50769;SDS011;36740;48.698;11.472;2023-08-31T08:41:35;1.90;;;1.75;;
50769;SDS011;36740;48.698;11.472;2023-08-31T08:44:02;5.88;;;4.07;;
50769;SDS011;36740;48.698;11.472;2023-08-31T08:46:28;5.00;;;2.63;;
50769;SDS011;36740;48.698;11.472;2023-08-31T08:48:54;3.80;;;2.35;;
50769;SDS011;36740;48.698;11.472;2023-08-31T08:51:19;5.05;;;3.47;;
50769;SDS011;36740;48.698;11.472;2023-08-31T08:53:45;4.93;;;2.75;;
50769;SDS011;36740;48.698;11.472;2023-08-31T08:56:11;2.70;;;1.95;;
50769;SDS011;36740;48.698;11.472;2023-08-31T08:58:36;9.43;;;4.20;;
50769;SDS011;36740;48.698;11.472;2023-08-31T09:01:02;4.25;;;2.20;;
50769;SDS011;36740;48.698;11.472;2023-08-31T09:03:29;4.80;;;2.78;;
50769;SDS011;36740;48.698;11.472;2023-08-31T09:05:54;6.75;;;2.58;;
50769;SDS011;36740;48.698;11.472;2023-08-31T09:08:26;2.47;;;2.05;;
50769;SDS011;36740;48.698;11.472;2023-08-31T09:10:51;6.63;;;2.10;;
50769;SDS011;36740;48.698;11.472;2023-08-31T09:13:17;5.35;;;2.13;;
50769;SDS011;36740;48.698;11.472;2023-08-31T09:16:01;4.10;;;2.63;;
50769;SDS011;36740;48.698;11.472;2023-08-31T09:20:52;4.80;;;2.28;;
50769;SDS011;36740;48.698;11.472;2023-08-31T09:23:18;5.85;;;2.90;;
50769;SDS011;36740;48.698;11.472;2023-08-31T09:25:48;3.92;;;2.15;;
50769;SDS011;36740;48.698;11.472;2023-08-31T09:28:14;7.57;;;3.53;;
50769;SDS011;36740;48.698;11.472;2023-08-31T09:30:39;6.63;;;3.03;;
50769;SDS011;36740;48.698;11.472;2023-08-31T09:33:11;11.05;;;3.05;;
50769;SDS011;36740;48.698;11.472;2023-08-31T09:35:39;7.13;;;2.53;;
50769;SDS011;36740;48.698;11.472;2023-08-31T09:38:07;5.00;;;2.92;;
50769;SDS011;36740;48.698;11.472;2023-08-31T09:40:32;5.10;;;2.67;;
50769;SDS011;36740;48.698;11.472;2023-08-31T09:42:57;9.27;;;4.60;;
50769;SDS011;36740;48.698;11.472;2023-08-31T09:45:29;5.50;;;2.25;;
50769;SDS011;36740;48.698;11.472;2023-08-31T09:47:55;5.15;;;3.08;;
50769;SDS011;36740;48.698;11.472;2023-08-31T09:50:20;5.15;;;2.20;;
50769;SDS011;36740;48.698;11.472;2023-08-31T09:52:46;10.88;;;3.38;;
50769;SDS011;36740;48.698;11.472;2023-08-31T09:55:13;6.13;;;2.65;;
50769;SDS011;36740;48.698;11.472;2023-08-31T09:57:38;5.45;;;2.47;;
50769;SDS011;36740;48.698;11.472;2023-08-31T10:00:06;8.38;;;2.88;;
50769;SDS011;36740;48.698;11.472;2023-08-31T10:02:32;10.27;;;2.47;;
50769;SDS011;36740;48.698;11.472;2023-08-31T10:04:58;12.63;;;2.95;;
50769;SDS011;36740;48.698;11.472;2023-08-31T10:07:24;5.20;;;1.90;;
50769;SDS011;36740;48.698;11.472;2023-08-31T10:09:50;5.85;;;2.42;;
50769;SDS011;36740;48.698;11.472;2023-08-31T10:12:15;3.47;;;1.90;;
50769;SDS011;36740;48.698;11.472;2023-08-31T10:14:41;2.22;;;1.70;;
50769;SDS011;36740;48.698;11.472;2023-08-31T10:17:07;11.98;;;2.78;;
50769;SDS011;36740;48.698;11.472;2023-08-31T10:19:33;3.45;;;2.35;;
50769;SDS011;36740;48.698;11.472;2023-08-31T10:21:58;4.78;;;2.33;;
50769;SDS011;36740;48.698;11.472;2023-08-31T10:27:17;6.60;;;1.92;;
50769;SDS011;36740;48.698;11.472;2023-08-31T10:29:42;4.75;;;1.35;;
50769;SDS011;36740;48.698;11.472;2023-08-31T10:32:07;4.50;;;1.75;;
50769;SDS011;36740;48.698;11.472;2023-08-31T10:34:36;5.43;;;2.58;;
50769;SDS011;36740;48.698;11.472;2023-08-31T10:37:02;6.85;;;1.95;;
50769;SDS011;36740;48.698;11.472;2023-08-31T10:39:36;3.38;;;2.20;;
50769;SDS011;36740;48.698;11.472;2023-08-31T10:42:02;4.05;;;1.98;;
50769;SDS011;36740;48.698;11.472;2023-08-31T10:44:30;6.25;;;2.45;;
50769;SDS011;36740;48.698;11.472;2023-08-31T10:46:55;6.53;;;3.20;;
50769;SDS011;36740;48.698;11.472;2023-08-31T10:49:24;2.17;;;1.55;;
50769;SDS011;36740;48.698;11.472;2023-08-31T10:51:54;3.95;;;1.70;;
50769;SDS011;36740;48.698;11.472;2023-08-31T10:54:21;7.20;;;2.55;;
50769;SDS011;36740;48.698;11.472;2023-08-31T10:59:52;3.15;;;1.77;;
50769;SDS011;36740;48.698;11.472;2023-08-31T11:02:31;5.30;;;2.92;;
50769;SDS011;36740;48.698;11.472;2023-08-31T11:05:08;5.18;;;2.25;;
50769;SDS011;36740;48.698;11.472;2023-08-31T11:07:34;2.63;;;1.83;;
50769;SDS011;36740;48.698;11.472;2023-08-31T11:12:32;4.47;;;2.97;;
50769;SDS011;36740;48.698;11.472;2023-08-31T11:14:57;1.77;;;1.57;;
50769;SDS011;36740;48.698;11.472;2023-08-31T11:17:22;2.23;;;2.03;;
50769;SDS011;36740;48.698;11.472;2023-08-31T11:19:49;4.47;;;2.72;;
50769;SDS011;36740;48.698;11.472;2023-08-31T11:22:15;6.00;;;2.15;;
50769;SDS011;36740;48.698;11.472;2023-08-31T11:24:40;2.75;;;1.83;;
50769;SDS011;36740;48.698;11.472;2023-08-31T11:27:08;4.22;;;2.22;;
50769;SDS011;36740;48.698;11.472;2023-08-31T11:29:42;4.13;;;2.92;;
50769;SDS011;36740;48.698;11.472;2023-08-31T11:32:08;5.45;;;2.20;;
50769;SDS011;36740;48.698;11.472;2023-08-31T11:34:33;3.70;;;2.35;;
50769;SDS011;36740;48.698;11.472;2023-08-31T11:36:58;4.93;;;3.08;;
50769;SDS011;36740;48.698;11.472;2023-08-31T11:39:24;6.00;;;2.33;;
50769;SDS011;36740;48.698;11.472;2023-08-31T11:41:49;6.00;;;2.67;;
50769;SDS011;36740;48.698;11.472;2023-08-31T11:44:14;2.88;;;1.63;;
50769;SDS011;36740;48.698;11.472;2023-08-31T11:46:44;8.13;;;3.10;;
50769;SDS011;36740;48.698;11.472;2023-08-31T11:49:10;5.22;;;2.78;;
50769;SDS011;36740;48.698;11.472;2023-08-31T11:51:36;2.75;;;2.05;;
50769;SDS011;36740;48.698;11.472;2023-08-31T11:54:02;4.80;;;2.28;;
50769;SDS011;36740;48.698;11.472;2023-08-31T11:59:12;2.63;;;1.73;;
50769;SDS011;36740;48.698;11.472;2023-08-31T12:01:38;1.98;;;1.65;;
50769;SDS011;36740;48.698;11.472;2023-08-31T12:04:09;4.97;;;2.88;;
50769;SDS011;36740;48.698;11.472;2023-08-31T12:06:34;2.45;;;1.65;;
50769;SDS011;36740;48.698;11.472;2023-08-31T12:08:59;5.00;;;3.13;;
50769;SDS011;36740;48.698;11.472;2023-08-31T12:11:25;1.48;;;1.35;;
50769;SDS011;36740;48.698;11.472;2023-08-31T12:13:50;4.28;;;2.70;;
50769;SDS011;36740;48.698;11.472;2023-08-31T12:16:15;4.63;;;2.22;;
50769;SDS011;36740;48.698;11.472;2023-08-31T12:18:43;4.93;;;2.28;;
50769;SDS011;36740;48.698;11.472;2023-08-31T12:21:08;3.60;;;2.67;;
50769;SDS011;36740;48.698;11.472;2023-08-31T12:23:33;2.38;;;1.55;;
50769;SDS011;36740;48.698;11.472;2023-08-31T12:25:59;2.67;;;2.13;;
50769;SDS011;36740;48.698;11.472;2023-08-31T12:28:25;18.13;;;2.65;;
50769;SDS011;36740;48.698;11.472;2023-08-31T12:30:51;5.00;;;2.42;;
50769;SDS011;36740;48.698;11.472;2023-08-31T12:33:17;2.08;;;1.38;;
50769;SDS011;36740;48.698;11.472;2023-08-31T12:35:43;8.20;;;1.90;;
50769;SDS011;36740;48.698;11.472;2023-08-31T12:38:08;3.55;;;2.00;;
50769;SDS011;36740;48.698;11.472;2023-08-31T12:40:33;2.95;;;2.38;;
50769;SDS011;36740;48.698;11.472;2023-08-31T12:42:58;2.38;;;1.48;;
50769;SDS011;36740;48.698;11.472;2023-08-31T12:45:24;4.88;;;2.80;;
50769;SDS011;36740;48.698;11.472;2023-08-31T12:47:49;4.20;;;1.60;;
50769;SDS011;36740;48.698;11.472;2023-08-31T12:50:14;2.85;;;1.60;;
50769;SDS011;36740;48.698;11.472;2023-08-31T12:52:40;3.83;;;1.77;;
50769;SDS011;36740;48.698;11.472;2023-08-31T12:55:18;2.78;;;1.80;;
50769;SDS011;36740;48.698;11.472;2023-08-31T12:57:43;1.58;;;1.42;;
50769;SDS011;36740;48.698;11.472;2023-08-31T13:00:09;6.70;;;2.83;;
50769;SDS011;36740;48.698;11.472;2023-08-31T13:02:41;3.97;;;1.88;;
50769;SDS011;36740;48.698;11.472;2023-08-31T13:05:07;1.40;;;1.30;;
50769;SDS011;36740;48.698;11.472;2023-08-31T13:07:35;7.10;;;2.10;;
50769;SDS011;36740;48.698;11.472;2023-08-31T13:10:00;3.85;;;2.20;;
50769;SDS011;36740;48.698;11.472;2023-08-31T13:12:28;4.45;;;1.70;;
50769;SDS011;36740;48.698;11.472;2023-08-31T13:14:54;7.57;;;2.85;;
50769;SDS011;36740;48.698;11.472;2023-08-31T13:17:19;3.40;;;1.50;;
50769;SDS011;36740;48.698;11.472;2023-08-31T13:19:44;2.63;;;1.87;;
50769;SDS011;36740;48.698;11.472;2023-08-31T13:22:09;6.53;;;1.80;;
50769;SDS011;36740;48.698;11.472;2023-08-31T13:24:40;6.72;;;1.83;;
50769;SDS011;36740;48.698;11.472;2023-08-31T13:27:05;3.38;;;2.05;;
50769;SDS011;36740;48.698;11.472;2023-08-31T13:29:30;3.45;;;2.10;;
50769;SDS011;36740;48.698;11.472;2023-08-31T13:31:57;4.63;;;1.85;;
50769;SDS011;36740;48.698;11.472;2023-08-31T13:34:22;3.00;;;1.40;;
50769;SDS011;36740;48.698;11.472;2023-08-31T13:36:47;5.07;;;2.50;;
50769;SDS011;36740;48.698;11.472;2023-08-31T13:39:13;2.10;;;1.70;;
50769;SDS011;36740;48.698;11.472;2023-08-31T13:41:38;4.25;;;2.47;;
50769;SDS011;36740;48.698;11.472;2023-08-31T13:44:04;2.95;;;1.83;;
50769;SDS011;36740;48.698;11.472;2023-08-31T13:46:29;4.45;;;1.90;;
50769;SDS011;36740;48.698;11.472;2023-08-31T13:48:56;1.17;;;1.05;;
50769;SDS011;36740;48.698;11.472;2023-08-31T13:51:21;5.28;;;1.67;;
50769;SDS011;36740;48.698;11.472;2023-08-31T13:53:47;4.03;;;1.93;;
50769;SDS011;36740;48.698;11.472;2023-08-31T13:56:12;4.15;;;2.20;;
50769;SDS011;36740;48.698;11.472;2023-08-31T13:58:38;3.05;;;2.15;;
50769;SDS011;36740;48.698;11.472;2023-08-31T14:01:03;2.47;;;1.75;;
50769;SDS011;36740;48.698;11.472;2023-08-31T14:03:28;1.45;;;1.25;;
50769;SDS011;36740;48.698;11.472;2023-08-31T14:05:54;5.40;;;1.73;;
50769;SDS011;36740;48.698;11.472;2023-08-31T14:08:19;1.07;;;0.97;;
50769;SDS011;36740;48.698;11.472;2023-08-31T14:10:45;4.13;;;2.05;;
50769;SDS011;36740;48.698;11.472;2023-08-31T14:13:10;3.80;;;1.60;;
50769;SDS011;36740;48.698;11.472;2023-08-31T14:15:36;4.65;;;2.40;;
50769;SDS011;36740;48.698;11.472;2023-08-31T14:18:02;4.15;;;2.05;;
50769;SDS011;36740;48.698;11.472;2023-08-31T14:20:27;2.58;;;1.30;;
50769;SDS011;36740;48.698;11.472;2023-08-31T14:22:52;4.90;;;2.45;;
50769;SDS011;36740;48.698;11.472;2023-08-31T14:25:17;2.55;;;2.17;;
50769;SDS011;36740;48.698;11.472;2023-08-31T14:27:43;8.63;;;2.75;;
50769;SDS011;36740;48.698;11.472;2023-08-31T14:30:08;5.15;;;1.65;;
50769;SDS011;36740;48.698;11.472;2023-08-31T14:32:34;6.35;;;1.65;;
50769;SDS011;36740;48.698;11.472;2023-08-31T14:34:59;8.75;;;2.50;;
50769;SDS011;36740;48.698;11.472;2023-08-31T14:37:24;4.13;;;2.20;;
50769;SDS011;36740;48.698;11.472;2023-08-31T14:39:50;3.47;;;2.45;;
50769;SDS011;36740;48.698;11.472;2023-08-31T14:42:15;3.67;;;2.15;;
50769;SDS011;36740;48.698;11.472;2023-08-31T14:44:42;2.90;;;1.50;;
50769;SDS011;36740;48.698;11.472;2023-08-31T14:47:09;3.60;;;1.60;;
50769;SDS011;36740;48.698;11.472;2023-08-31T14:49:34;4.43;;;2.10;;
50769;SDS011;36740;48.698;11.472;2023-08-31T14:52:00;14.00;;;2.72;;